createdAt,value
2017-06-15T00:01:01.619Z,5.03
2017-06-15T00:03:32.232Z,5.07
2017-06-15T00:06:01.920Z,5.50
2017-06-15T00:08:31.614Z,5.93
2017-06-15T00:11:01.314Z,5.50
2017-06-15T00:13:31.030Z,5.10
2017-06-15T00:16:01.596Z,5.50
2017-06-15T00:18:32.157Z,5.17
2017-06-15T00:21:01.881Z,5.20
2017-06-15T00:23:31.540Z,5.80
2017-06-15T00:26:01.218Z,4.77
2017-06-15T00:28:30.946Z,5.30
2017-06-15T00:31:00.615Z,6.00
2017-06-15T00:33:30.357Z,5.57
2017-06-15T00:36:00.038Z,5.97
2017-06-15T00:38:29.854Z,6.27
2017-06-15T00:40:59.565Z,6.07
2017-06-15T00:43:29.258Z,5.37
2017-06-15T00:45:58.962Z,6.30
2017-06-15T00:48:28.681Z,5.73
2017-06-15T00:50:58.378Z,5.63
2017-06-15T00:53:28.894Z,6.10
2017-06-15T00:55:58.642Z,6.60
2017-06-15T00:58:28.341Z,6.10
2017-06-15T01:00:58.032Z,5.60
2017-06-15T01:03:27.746Z,7.13
2017-06-15T01:05:57.430Z,5.80
2017-06-15T01:08:27.166Z,5.30
2017-06-15T01:10:56.864Z,6.40
2017-06-15T01:13:27.486Z,5.70
2017-06-15T01:15:57.198Z,6.70
2017-06-15T01:18:26.864Z,6.03
2017-06-15T01:20:56.582Z,6.43
2017-06-15T01:23:26.278Z,7.40
2017-06-15T01:25:56.003Z,6.87
2017-06-15T01:28:25.692Z,6.30
2017-06-15T01:30:56.234Z,6.47
2017-06-15T01:33:26.753Z,6.50
2017-06-15T01:36:04.467Z,7.30
2017-06-15T01:38:37.945Z,6.03
2017-06-15T01:41:07.335Z,7.50
2017-06-15T01:43:37.042Z,6.50
2017-06-15T01:46:06.744Z,7.17
2017-06-15T01:48:37.276Z,7.47
2017-06-15T01:51:06.959Z,6.97
2017-06-15T01:53:36.677Z,6.67
2017-06-15T01:56:06.358Z,6.40
2017-06-15T01:58:36.925Z,6.03
2017-06-15T02:01:06.911Z,6.33
2017-06-15T02:03:37.590Z,6.53
2017-06-15T02:06:08.160Z,6.60
2017-06-15T02:08:37.901Z,7.17
2017-06-15T02:11:08.398Z,6.53
2017-06-15T02:13:38.970Z,6.47
2017-06-15T02:16:08.747Z,6.97
2017-06-15T02:18:38.426Z,7.80
2017-06-15T02:21:08.114Z,6.53
2017-06-15T02:23:37.791Z,8.07
2017-06-15T02:26:07.505Z,6.83
2017-06-15T02:28:37.205Z,6.80
2017-06-15T02:31:06.946Z,6.57
2017-06-15T02:33:36.634Z,6.50
2017-06-15T02:36:06.450Z,8.20
2017-06-15T02:38:36.161Z,7.53
2017-06-15T02:41:05.890Z,7.77
2017-06-15T02:43:35.592Z,7.63
2017-06-15T02:46:05.259Z,7.20
2017-06-15T02:48:35.462Z,7.60
2017-06-15T02:51:05.166Z,6.80
2017-06-15T02:53:34.948Z,7.63
2017-06-15T02:56:07.877Z,7.10
2017-06-15T02:58:47.491Z,6.90
2017-06-15T03:01:32.979Z,7.37
2017-06-15T03:04:16.798Z,7.00
2017-06-15T03:06:59.205Z,7.60
2017-06-15T03:09:40.107Z,7.27
2017-06-15T03:12:18.248Z,7.40
2017-06-15T03:15:02.272Z,7.03
2017-06-15T03:17:43.883Z,7.30
2017-06-15T03:20:25.179Z,6.93
2017-06-15T03:23:02.729Z,8.50
2017-06-15T03:25:42.937Z,9.37
2017-06-15T03:28:23.838Z,7.60
2017-06-15T03:31:05.834Z,7.73
2017-06-15T03:33:39.410Z,6.83
2017-06-15T03:36:09.937Z,7.33
2017-06-15T03:38:41.035Z,7.03
2017-06-15T03:41:12.207Z,7.20
2017-06-15T03:43:43.226Z,7.30
2017-06-15T03:46:15.692Z,7.60
2017-06-15T03:48:48.544Z,7.23
2017-06-15T03:51:20.745Z,7.43
2017-06-15T03:53:52.894Z,7.00
2017-06-15T03:56:30.486Z,7.83
2017-06-15T03:59:04.369Z,7.90
2017-06-15T04:01:36.520Z,7.83
2017-06-15T04:04:07.615Z,7.60
2017-06-15T04:06:37.341Z,8.53
2017-06-15T04:09:07.019Z,8.10
2017-06-15T04:11:36.750Z,10.43
2017-06-15T04:14:06.465Z,7.47
2017-06-15T04:16:35.980Z,8.00
2017-06-15T04:19:05.727Z,7.73
2017-06-15T04:21:35.429Z,8.70
2017-06-15T04:24:06.648Z,8.73
2017-06-15T04:26:37.081Z,9.07
2017-06-15T04:29:06.833Z,10.10
2017-06-15T04:34:15.196Z,10.93
2017-06-15T04:36:44.898Z,10.47
2017-06-15T04:39:14.586Z,10.10
2017-06-15T04:41:45.163Z,8.73
2017-06-15T04:44:14.846Z,8.83
2017-06-15T04:46:44.556Z,9.73
2017-06-15T04:49:14.253Z,9.87
2017-06-15T04:51:45.831Z,9.97
2017-06-15T04:54:19.996Z,8.90
2017-06-15T04:56:53.021Z,8.27
2017-06-15T04:59:25.842Z,9.17
2017-06-15T05:01:55.992Z,10.77
2017-06-15T05:04:25.683Z,9.70
2017-06-15T05:06:55.350Z,10.40
2017-06-15T05:09:25.067Z,9.60
2017-06-15T05:11:54.742Z,8.60
2017-06-15T05:14:24.279Z,9.33
2017-06-15T05:16:54.794Z,10.80
2017-06-15T05:19:24.541Z,8.63
2017-06-15T05:21:54.221Z,8.60
2017-06-15T05:24:23.904Z,11.43
2017-06-15T05:26:53.634Z,8.70
2017-06-15T05:29:23.323Z,8.33
2017-06-15T05:31:53.046Z,7.37
2017-06-15T05:34:26.926Z,11.03
2017-06-15T05:37:01.041Z,8.43
2017-06-15T05:39:30.721Z,9.20
2017-06-15T05:42:00.407Z,9.60
2017-06-15T05:44:30.125Z,9.03
2017-06-15T05:46:59.831Z,10.17
2017-06-15T05:49:29.557Z,8.90
2017-06-15T05:51:59.245Z,8.27
2017-06-15T05:54:28.958Z,7.90
2017-06-15T06:00:04.779Z,8.23
2017-06-15T06:02:34.597Z,7.90
2017-06-15T06:05:04.280Z,8.93
2017-06-15T06:07:34.250Z,9.57
2017-06-15T06:10:03.977Z,8.10
2017-06-15T06:12:33.685Z,8.90
2017-06-15T06:15:03.422Z,8.67
2017-06-15T06:17:33.088Z,7.67
2017-06-15T06:20:02.945Z,7.97
2017-06-15T06:22:32.645Z,7.60
2017-06-15T06:25:02.315Z,7.30
2017-06-15T06:27:32.010Z,6.97
2017-06-15T06:30:01.726Z,6.50
2017-06-15T06:32:31.458Z,7.43
2017-06-15T06:35:01.134Z,6.80
2017-06-15T06:37:30.828Z,7.20
2017-06-15T06:40:01.381Z,7.47
2017-06-15T06:42:31.981Z,7.23
2017-06-15T06:45:01.698Z,7.07
2017-06-15T06:47:31.378Z,7.90
2017-06-15T06:50:01.078Z,7.17
2017-06-15T06:52:30.884Z,6.83
2017-06-15T06:55:00.716Z,7.90
2017-06-15T06:57:35.528Z,5.93
2017-06-15T07:00:07.649Z,6.73
2017-06-15T07:02:39.621Z,7.97
2017-06-15T07:05:10.966Z,6.40
2017-06-15T07:07:41.300Z,9.40
2017-06-15T07:10:13.959Z,7.13
2017-06-15T07:12:43.752Z,10.43
2017-06-15T07:15:13.492Z,5.93
2017-06-15T07:17:43.824Z,6.00
2017-06-15T07:20:13.685Z,6.30
2017-06-15T07:22:43.430Z,5.90
2017-06-15T07:25:13.217Z,5.83
2017-06-15T07:27:43.482Z,4.27
2017-06-15T07:30:13.219Z,4.50
2017-06-15T07:32:43.610Z,6.00
2017-06-15T07:35:13.803Z,4.70
2017-06-15T07:37:43.592Z,4.73
2017-06-15T07:40:14.221Z,4.53
2017-06-15T07:42:44.018Z,3.60
2017-06-15T07:45:14.808Z,4.10
2017-06-15T07:47:44.883Z,4.47
2017-06-15T07:50:14.621Z,3.70
2017-06-15T07:52:44.343Z,3.27
2017-06-15T07:55:14.125Z,4.30
2017-06-15T07:57:45.177Z,4.13
2017-06-15T08:00:14.951Z,3.63
2017-06-15T08:02:44.680Z,4.70
2017-06-15T08:05:14.449Z,4.03
2017-06-15T08:07:44.223Z,4.70
2017-06-15T08:10:13.975Z,4.30
2017-06-15T08:12:52.155Z,4.40
2017-06-15T08:15:21.889Z,4.87
2017-06-15T08:17:54.602Z,4.03
2017-06-15T08:20:27.251Z,6.50
2017-06-15T08:22:57.018Z,3.60
2017-06-15T08:25:28.053Z,3.77
2017-06-15T08:27:58.897Z,3.90
2017-06-15T08:30:28.654Z,4.33
2017-06-15T08:32:58.382Z,3.60
2017-06-15T08:35:28.144Z,3.97
2017-06-15T08:37:57.868Z,3.40
2017-06-15T08:40:27.681Z,3.70
2017-06-15T08:42:57.606Z,3.90
2017-06-15T08:45:27.355Z,3.43
2017-06-15T08:47:57.122Z,4.40
2017-06-15T08:50:26.869Z,3.47
2017-06-15T08:52:56.651Z,4.00
2017-06-15T08:55:26.220Z,4.50
2017-06-15T08:57:57.382Z,4.37
2017-06-15T09:00:29.879Z,3.20
2017-06-15T09:02:59.604Z,8.50
2017-06-15T09:05:29.745Z,4.70
2017-06-15T09:07:59.486Z,6.20
2017-06-15T09:10:30.586Z,3.30
2017-06-15T09:13:00.326Z,2.80
2017-06-15T09:15:30.093Z,3.57
2017-06-15T09:18:03.853Z,3.67
2017-06-15T09:20:36.339Z,5.00
2017-06-15T09:23:06.112Z,3.23
2017-06-15T09:25:35.850Z,2.83
2017-06-15T09:28:08.888Z,3.73
2017-06-15T09:30:38.647Z,3.17
2017-06-15T09:33:08.379Z,3.40
2017-06-15T09:35:38.140Z,5.37
2017-06-15T09:38:07.922Z,3.00
2017-06-15T09:40:45.474Z,5.53
2017-06-15T09:43:15.848Z,4.13
2017-06-15T09:45:45.657Z,2.73
2017-06-15T09:48:15.397Z,2.90
2017-06-15T09:50:45.149Z,2.83
2017-06-15T09:53:15.118Z,6.17
2017-06-15T09:55:45.679Z,3.17
2017-06-15T09:58:15.474Z,5.17
2017-06-15T10:00:45.230Z,3.00
2017-06-15T10:03:15.044Z,2.93
2017-06-15T10:05:44.876Z,2.90
2017-06-15T10:08:14.686Z,3.13
2017-06-15T10:10:44.497Z,2.70
2017-06-15T10:13:14.255Z,3.30
2017-06-15T10:15:44.068Z,2.90
2017-06-15T10:18:13.805Z,4.33
2017-06-15T10:20:43.597Z,3.10
2017-06-15T10:23:14.320Z,4.67
2017-06-15T10:25:44.057Z,5.27
2017-06-15T10:28:13.856Z,2.67
2017-06-15T10:30:43.655Z,2.67
2017-06-15T10:33:15.078Z,3.17
2017-06-15T10:35:44.839Z,2.80
2017-06-15T10:38:14.579Z,5.40
2017-06-15T10:40:44.345Z,5.40
2017-06-15T10:43:14.488Z,2.60
2017-06-15T10:45:44.260Z,2.70
2017-06-15T10:48:14.085Z,3.47
2017-06-15T10:50:45.253Z,3.00
2017-06-15T10:53:15.028Z,3.23
2017-06-15T10:55:44.845Z,4.60
2017-06-15T10:58:14.649Z,2.53
2017-06-15T11:00:44.389Z,2.87
2017-06-15T11:03:14.335Z,3.20
2017-06-15T11:05:44.460Z,3.70
2017-06-15T11:08:14.247Z,2.83
2017-06-15T11:10:44.044Z,2.57
2017-06-15T11:13:13.792Z,4.77
2017-06-15T11:15:43.524Z,3.60
2017-06-15T11:18:14.327Z,2.07
2017-06-15T11:20:45.624Z,3.50
2017-06-15T11:23:15.452Z,2.40
2017-06-15T11:25:47.841Z,2.20
2017-06-15T11:28:19.553Z,2.40
2017-06-15T11:30:49.267Z,2.60
2017-06-15T11:33:19.049Z,2.87
2017-06-15T11:35:48.834Z,5.00
2017-06-15T11:38:18.602Z,2.50
2017-06-15T11:40:48.629Z,2.50
2017-06-15T11:43:20.787Z,2.47
2017-06-15T11:45:50.628Z,2.57
2017-06-15T11:48:21.902Z,2.80
2017-06-15T11:50:51.695Z,2.77
2017-06-15T11:53:21.418Z,4.37
2017-06-15T11:55:51.149Z,2.67
2017-06-15T11:58:21.057Z,3.63
2017-06-15T12:00:50.774Z,3.77
2017-06-15T12:03:20.558Z,2.67
2017-06-15T12:05:54.846Z,3.60
2017-06-15T12:08:24.628Z,2.80
2017-06-15T12:10:54.385Z,3.30
2017-06-15T12:13:24.123Z,3.47
2017-06-15T12:15:54.002Z,3.20
2017-06-15T12:18:23.914Z,2.67
2017-06-15T12:20:53.740Z,3.17
2017-06-15T12:23:23.456Z,2.80
2017-06-15T12:25:53.195Z,3.00
2017-06-15T12:28:22.954Z,4.00
2017-06-15T12:31:03.193Z,3.33
2017-06-15T12:33:36.510Z,2.90
2017-06-15T12:36:06.249Z,2.60
2017-06-15T12:38:35.994Z,5.60
2017-06-15T12:41:05.758Z,5.20
2017-06-15T12:43:35.508Z,11.33
2017-06-15T12:46:05.299Z,3.20
2017-06-15T12:48:35.207Z,4.40
2017-06-15T12:51:04.934Z,7.67
2017-06-15T12:53:34.732Z,3.90
2017-06-15T12:56:04.618Z,4.00
2017-06-15T12:58:35.688Z,3.20
2017-06-15T13:01:05.418Z,3.30
2017-06-15T13:03:35.165Z,3.07
2017-06-15T13:06:04.951Z,3.10
2017-06-15T13:08:36.417Z,3.33
2017-06-15T13:11:06.187Z,4.87
2017-06-15T13:13:35.931Z,3.00
2017-06-15T13:16:05.938Z,6.80
2017-06-15T13:18:37.332Z,3.87
2017-06-15T13:21:07.118Z,3.17
2017-06-15T13:23:36.889Z,2.90
2017-06-15T13:26:06.660Z,3.30
2017-06-15T13:28:39.548Z,4.10
2017-06-15T13:31:17.387Z,2.80
2017-06-15T13:33:47.162Z,3.70
2017-06-15T13:36:17.115Z,2.20
2017-06-15T13:38:47.015Z,2.93
2017-06-15T13:41:16.808Z,5.00
2017-06-15T13:43:46.900Z,2.70
2017-06-15T13:46:18.893Z,2.70
2017-06-15T13:48:48.627Z,3.40
2017-06-15T13:51:18.410Z,4.23
2017-06-15T13:53:48.956Z,2.90
2017-06-15T13:56:18.818Z,3.70
2017-06-15T13:58:48.611Z,4.10
2017-06-15T14:01:18.333Z,2.50
2017-06-15T14:03:49.559Z,2.67
2017-06-15T14:06:19.291Z,2.60
2017-06-15T14:08:49.038Z,2.80
2017-06-15T14:11:20.471Z,2.90
2017-06-15T14:13:50.855Z,3.00
2017-06-15T14:16:21.617Z,2.03
2017-06-15T14:18:51.388Z,3.60
2017-06-15T14:21:21.246Z,4.23
2017-06-15T14:23:52.123Z,2.47
2017-06-15T14:26:21.843Z,2.70
2017-06-15T14:28:51.656Z,2.90
2017-06-15T14:31:21.485Z,2.63
2017-06-15T14:33:51.380Z,2.53
2017-06-15T14:36:21.663Z,2.90
2017-06-15T14:38:53.524Z,2.80
2017-06-15T14:41:23.324Z,2.60
2017-06-15T14:43:53.084Z,2.80
2017-06-15T14:46:23.231Z,2.80
2017-06-15T14:48:53.811Z,2.80
2017-06-15T14:51:27.396Z,3.27
2017-06-15T14:53:58.149Z,2.70
2017-06-15T14:56:29.212Z,2.80
2017-06-15T14:58:58.990Z,2.80
2017-06-15T15:01:29.581Z,3.03
2017-06-15T15:03:59.376Z,2.77
2017-06-15T15:06:31.436Z,3.03
2017-06-15T15:09:12.393Z,2.30
2017-06-15T15:11:42.159Z,2.93
2017-06-15T15:14:11.956Z,2.87
2017-06-15T15:16:41.877Z,2.80
2017-06-15T15:19:11.619Z,3.30
2017-06-15T15:21:42.280Z,3.10
2017-06-15T15:24:12.025Z,3.73
2017-06-15T15:26:44.095Z,2.67
2017-06-15T15:29:13.973Z,2.73
2017-06-15T15:31:43.982Z,3.20
2017-06-15T15:34:13.728Z,3.20
2017-06-15T15:36:43.491Z,3.30
2017-06-15T15:39:13.245Z,3.20
2017-06-15T15:41:43.009Z,3.07
2017-06-15T15:44:12.794Z,2.90
2017-06-15T15:46:43.511Z,3.50
2017-06-15T15:49:13.645Z,3.43
2017-06-15T15:51:43.469Z,3.13
2017-06-15T15:54:20.653Z,3.97
2017-06-15T15:56:50.384Z,3.33
2017-06-15T15:59:21.342Z,3.30
2017-06-15T16:01:51.741Z,3.40
2017-06-15T16:04:21.569Z,3.50
2017-06-15T16:06:51.288Z,3.47
2017-06-15T16:09:21.022Z,3.57
2017-06-15T16:11:50.781Z,3.43
2017-06-15T16:14:20.676Z,3.50
2017-06-15T16:16:50.503Z,4.00
2017-06-15T16:19:20.220Z,3.23
2017-06-15T16:21:50.318Z,3.17
2017-06-15T16:24:20.075Z,3.57
2017-06-15T16:26:49.813Z,3.17
2017-06-15T16:29:20.896Z,3.37
2017-06-15T16:31:50.631Z,4.13
2017-06-15T16:34:23.295Z,3.50
2017-06-15T16:36:53.027Z,4.37
2017-06-15T16:39:22.831Z,4.10
2017-06-15T16:41:52.569Z,4.20
2017-06-15T16:44:23.763Z,4.33
2017-06-15T16:46:53.520Z,3.70
2017-06-15T16:49:24.663Z,4.37
2017-06-15T16:51:56.060Z,3.70
2017-06-15T16:54:28.554Z,3.20
2017-06-15T16:56:59.481Z,3.73
2017-06-15T16:59:29.265Z,3.10
2017-06-15T17:01:59.026Z,3.90
2017-06-15T17:04:28.774Z,3.70
2017-06-15T17:06:58.770Z,8.33
2017-06-15T17:09:28.593Z,3.20
2017-06-15T17:11:58.463Z,3.53
2017-06-15T17:14:29.567Z,3.80
2017-06-15T17:17:05.243Z,4.53
2017-06-15T17:19:37.033Z,3.83
2017-06-15T17:22:07.197Z,3.83
2017-06-15T17:24:37.027Z,4.13
2017-06-15T17:27:06.829Z,4.00
2017-06-15T17:29:36.587Z,4.10
2017-06-15T17:32:06.336Z,4.37
2017-06-15T17:34:36.221Z,4.50
2017-06-15T17:37:07.383Z,3.60
2017-06-15T17:39:37.416Z,3.70
2017-06-15T17:42:08.627Z,4.13
2017-06-15T17:44:38.423Z,3.57
2017-06-15T17:47:12.065Z,3.67
2017-06-15T17:49:41.852Z,4.40
2017-06-15T17:52:11.621Z,4.03
2017-06-15T17:54:41.379Z,4.50
2017-06-15T17:57:11.201Z,4.30
2017-06-15T17:59:45.367Z,3.87
2017-06-15T18:02:15.162Z,4.13
2017-06-15T18:04:45.610Z,5.73
2017-06-15T18:07:15.356Z,7.90
2017-06-15T18:09:46.064Z,5.37
2017-06-15T18:12:15.805Z,4.93
2017-06-15T18:14:48.500Z,4.10
2017-06-15T18:17:19.912Z,4.30
2017-06-15T18:19:49.735Z,4.40
2017-06-15T18:22:19.874Z,3.70
2017-06-15T18:24:49.647Z,3.33
2017-06-15T18:27:19.426Z,4.50
2017-06-15T18:29:50.297Z,4.23
2017-06-15T18:32:21.531Z,4.13
2017-06-15T18:34:51.353Z,3.93
2017-06-15T18:37:21.154Z,4.67
2017-06-15T18:39:58.675Z,4.57
2017-06-15T18:42:28.454Z,4.40
2017-06-15T18:44:59.020Z,4.27
2017-06-15T18:47:28.823Z,5.13
2017-06-15T18:49:58.576Z,4.60
2017-06-15T18:52:28.332Z,4.43
2017-06-15T18:54:58.108Z,4.30
2017-06-15T18:57:27.993Z,4.40
2017-06-15T18:59:58.624Z,4.00
2017-06-15T19:02:28.385Z,4.70
2017-06-15T19:04:58.131Z,4.17
2017-06-15T19:07:29.276Z,4.37
2017-06-15T19:09:59.013Z,4.50
2017-06-15T19:12:28.831Z,4.83
2017-06-15T19:14:59.013Z,5.73
2017-06-15T19:17:28.804Z,6.03
2017-06-15T19:19:58.541Z,6.87
2017-06-15T19:22:29.309Z,5.47
2017-06-15T19:24:59.061Z,6.50
2017-06-15T19:27:28.817Z,6.07
2017-06-15T19:30:01.039Z,6.07
2017-06-15T19:32:30.783Z,6.53
2017-06-15T19:35:04.633Z,6.03
2017-06-15T19:37:34.368Z,6.03
2017-06-15T19:40:04.192Z,5.90
2017-06-15T19:42:36.653Z,6.47
2017-06-15T19:45:06.500Z,6.10
2017-06-15T19:47:38.296Z,6.50
2017-06-15T19:50:08.082Z,5.83
2017-06-15T19:52:37.822Z,6.23
2017-06-15T19:55:07.542Z,6.30
2017-06-15T19:57:37.339Z,6.00
2017-06-15T20:00:07.073Z,5.90
2017-06-15T20:02:37.643Z,6.77
2017-06-15T20:05:07.411Z,5.60
2017-06-15T20:07:39.192Z,5.97
2017-06-15T20:10:09.036Z,6.90
2017-06-15T20:12:38.836Z,6.27
2017-06-15T20:15:08.593Z,6.00
2017-06-15T20:17:38.337Z,5.63
2017-06-15T20:20:08.120Z,5.40
2017-06-15T20:22:37.717Z,5.33
2017-06-15T20:25:07.268Z,5.37
2017-06-15T20:27:36.845Z,5.70
2017-06-15T20:30:06.084Z,5.80
2017-06-15T20:32:37.283Z,5.70
2017-06-15T20:35:08.488Z,5.73
2017-06-15T20:37:39.614Z,5.53
2017-06-15T20:40:09.352Z,7.33
2017-06-15T20:42:40.072Z,5.30
2017-06-15T20:45:09.805Z,8.37
2017-06-15T20:47:39.544Z,5.73
2017-06-15T20:50:10.100Z,4.10
2017-06-15T20:52:39.829Z,3.57
2017-06-15T20:55:09.607Z,3.10
2017-06-15T20:57:39.342Z,2.50
2017-06-15T21:00:09.081Z,3.13
2017-06-15T21:02:39.741Z,4.10
2017-06-15T21:05:10.956Z,4.00
2017-06-15T21:07:44.741Z,2.03
2017-06-15T21:10:15.020Z,3.27
2017-06-15T21:12:45.937Z,3.30
2017-06-15T21:15:15.678Z,1.83
2017-06-15T21:17:45.445Z,2.60
2017-06-15T21:20:16.045Z,2.40
2017-06-15T21:22:46.547Z,4.20
2017-06-15T21:25:18.217Z,1.90
2017-06-15T21:27:49.382Z,2.07
2017-06-15T21:30:19.181Z,2.03
2017-06-15T21:32:48.919Z,3.13
2017-06-15T21:35:18.278Z,5.93
2017-06-15T21:37:48.033Z,2.30
2017-06-15T21:40:18.659Z,3.23
2017-06-15T21:42:51.441Z,5.53
2017-06-15T21:45:22.564Z,3.93
2017-06-15T21:47:53.710Z,2.63
2017-06-15T21:50:24.790Z,2.33
2017-06-15T21:52:57.249Z,3.27
2017-06-15T21:55:28.898Z,2.20
2017-06-15T21:58:00.656Z,2.77
2017-06-15T22:00:32.714Z,4.43
2017-06-15T22:03:05.331Z,2.70
2017-06-15T22:05:38.019Z,3.73
2017-06-15T22:08:09.477Z,1.77
2017-06-15T22:10:41.219Z,2.37
2017-06-15T22:13:12.852Z,2.03
2017-06-15T22:15:44.103Z,2.33
2017-06-15T22:18:14.783Z,2.07
2017-06-15T22:20:45.915Z,1.67
2017-06-15T22:23:17.316Z,1.80
2017-06-15T22:25:48.411Z,2.30
2017-06-15T22:28:20.596Z,2.57
2017-06-15T22:30:51.700Z,2.13
2017-06-15T22:33:24.457Z,3.40
2017-06-15T22:35:55.726Z,2.17
2017-06-15T22:38:27.063Z,2.33
2017-06-15T22:40:58.211Z,3.00
2017-06-15T22:43:30.920Z,1.50
2017-06-15T22:46:02.288Z,2.50
2017-06-15T22:48:33.533Z,2.07
2017-06-15T22:51:06.106Z,2.03
2017-06-15T22:53:39.555Z,1.87
2017-06-15T22:56:11.016Z,1.97
2017-06-15T22:58:41.949Z,1.87
2017-06-15T23:01:17.126Z,2.90
2017-06-15T23:03:49.624Z,2.40
2017-06-15T23:06:22.515Z,1.57
2017-06-15T23:08:53.631Z,2.40
2017-06-15T23:11:28.531Z,2.20
2017-06-15T23:13:58.853Z,2.20
2017-06-15T23:16:28.607Z,3.07
2017-06-15T23:18:58.460Z,2.00
2017-06-15T23:21:29.352Z,3.00
2017-06-15T23:23:59.126Z,2.10
2017-06-15T23:26:28.921Z,2.07
2017-06-15T23:29:00.515Z,3.53
2017-06-15T23:31:30.329Z,2.00
2017-06-15T23:34:00.121Z,2.50
2017-06-15T23:36:29.923Z,3.07
2017-06-15T23:39:00.970Z,1.77
2017-06-15T23:41:30.715Z,5.53
2017-06-15T23:44:01.557Z,3.00
2017-06-15T23:46:31.357Z,4.43
2017-06-15T23:49:01.158Z,2.57
2017-06-15T23:51:32.527Z,4.03
2017-06-15T23:54:03.381Z,2.27
2017-06-15T23:56:33.522Z,2.30
2017-06-15T23:59:03.268Z,2.07
